createdAt,value
2019-04-05T00:02:13.189Z,13.93
2019-04-05T00:04:44.539Z,12.03
2019-04-05T00:07:15.838Z,11.90
2019-04-05T00:09:47.283Z,12.87
2019-04-05T00:12:18.589Z,13.57
2019-04-05T00:14:49.909Z,12.53
2019-04-05T00:17:21.203Z,12.63
2019-04-05T00:19:52.425Z,12.57
2019-04-05T00:22:23.741Z,14.73
2019-04-05T00:24:55.073Z,12.70
2019-04-05T00:27:26.393Z,14.23
2019-04-05T00:29:57.929Z,15.50
2019-04-05T00:32:29.085Z,14.77
2019-04-05T00:35:00.290Z,12.83
2019-04-05T00:37:31.537Z,14.40
2019-04-05T00:40:02.859Z,14.30
2019-04-05T00:42:34.136Z,14.30
2019-04-05T00:45:05.854Z,14.33
2019-04-05T00:47:37.335Z,14.17
2019-04-05T00:50:09.751Z,15.10
2019-04-05T00:52:40.956Z,16.07
2019-04-05T00:55:12.530Z,15.60
2019-04-05T00:57:43.908Z,15.03
2019-04-05T01:00:16.051Z,15.20
2019-04-05T01:02:47.345Z,14.50
2019-04-05T01:05:18.747Z,14.97
2019-04-05T01:07:50.331Z,15.77
2019-04-05T01:10:22.175Z,15.40
2019-04-05T01:12:53.967Z,16.40
2019-04-05T01:15:25.382Z,16.40
2019-04-05T01:17:56.740Z,15.37
2019-04-05T01:20:33.377Z,16.67
2019-04-05T01:23:04.964Z,14.77
2019-04-05T01:25:38.347Z,15.70
2019-04-05T01:28:09.846Z,16.10
2019-04-05T01:30:41.193Z,15.83
2019-04-05T01:33:12.499Z,15.97
2019-04-05T01:35:43.761Z,15.47
2019-04-05T01:38:15.195Z,16.37
2019-04-05T01:40:48.251Z,16.63
2019-04-05T01:43:19.894Z,17.07
2019-04-05T01:45:53.849Z,17.83
2019-04-05T01:48:24.610Z,16.83
2019-04-05T01:50:55.828Z,17.97
2019-04-05T01:53:28.051Z,16.33
2019-04-05T01:55:59.388Z,16.43
2019-04-05T01:58:30.661Z,18.00
2019-04-05T02:01:02.138Z,17.37
2019-04-05T02:03:33.600Z,16.50
2019-04-05T02:06:05.068Z,16.53
2019-04-05T02:08:36.975Z,16.03
2019-04-05T02:11:08.390Z,17.40
2019-04-05T02:13:42.618Z,16.73
2019-04-05T02:16:14.037Z,14.23
2019-04-05T02:18:45.325Z,16.70
2019-04-05T02:21:16.704Z,15.63
2019-04-05T02:23:47.943Z,16.33
2019-04-05T02:26:19.223Z,15.77
2019-04-05T02:28:50.552Z,16.20
2019-04-05T02:31:21.844Z,13.90
2019-04-05T02:33:53.299Z,16.10
2019-04-05T02:36:24.687Z,15.03
2019-04-05T02:38:55.996Z,15.77
2019-04-05T02:41:30.757Z,15.17
2019-04-05T02:44:04.185Z,15.07
2019-04-05T02:46:36.309Z,16.33
2019-04-05T02:49:08.336Z,16.20
2019-04-05T02:51:42.177Z,15.27
2019-04-05T02:54:14.127Z,16.00
2019-04-05T02:56:46.025Z,13.80
2019-04-05T02:59:18.904Z,15.00
2019-04-05T03:01:51.063Z,16.77
2019-04-05T03:04:22.393Z,15.93
2019-04-05T03:06:54.667Z,15.70
2019-04-05T03:09:26.607Z,14.70
2019-04-05T03:11:59.504Z,14.20
2019-04-05T03:14:32.573Z,13.27
2019-04-05T03:17:04.583Z,14.20
2019-04-05T03:19:39.210Z,13.53
2019-04-05T03:22:14.627Z,13.17
2019-04-05T03:24:48.626Z,13.23
2019-04-05T03:27:29.521Z,14.20
2019-04-05T03:30:02.582Z,13.70
2019-04-05T03:32:34.035Z,14.50
2019-04-05T03:35:05.722Z,13.83
2019-04-05T03:37:37.042Z,15.17
2019-04-05T03:40:08.867Z,14.20
2019-04-05T03:42:40.347Z,14.40
2019-04-05T03:45:12.061Z,17.73
2019-04-05T03:47:43.396Z,14.07
2019-04-05T03:50:14.893Z,19.37
2019-04-05T03:52:46.826Z,14.77
2019-04-05T03:55:18.439Z,15.17
2019-04-05T03:57:49.846Z,16.03
2019-04-05T04:00:21.139Z,13.00
2019-04-05T04:02:53.216Z,15.80
2019-04-05T04:05:24.600Z,16.03
2019-04-05T04:07:56.365Z,16.77
2019-04-05T04:10:29.943Z,17.63
2019-04-05T04:13:01.362Z,16.60
2019-04-05T04:15:33.780Z,17.13
2019-04-05T04:18:07.269Z,16.40
2019-04-05T04:20:47.401Z,16.50
2019-04-05T04:23:19.357Z,17.83
2019-04-05T04:25:52.700Z,16.60
2019-04-05T04:28:24.134Z,16.27
2019-04-05T04:30:55.904Z,18.13
2019-04-05T04:33:34.021Z,17.80
2019-04-05T04:36:05.879Z,16.93
2019-04-05T04:38:37.245Z,15.77
2019-04-05T04:41:09.053Z,18.30
2019-04-05T04:43:40.393Z,17.00
2019-04-05T04:46:11.758Z,17.30
2019-04-05T04:48:45.015Z,16.87
2019-04-05T04:51:16.828Z,15.93
2019-04-05T04:53:49.005Z,16.10
2019-04-05T04:56:20.431Z,17.90
2019-04-05T04:58:51.978Z,17.80
2019-04-05T05:01:23.720Z,18.53
2019-04-05T05:03:57.712Z,17.43
2019-04-05T05:06:29.469Z,18.40
2019-04-05T05:09:01.458Z,20.67
2019-04-05T05:11:32.631Z,17.80
2019-04-05T05:14:04.515Z,19.80
2019-04-05T05:16:35.998Z,17.80
2019-04-05T05:19:07.591Z,19.50
2019-04-05T05:21:39.487Z,19.33
2019-04-05T05:24:10.726Z,23.50
2019-04-05T05:26:42.379Z,25.57
2019-04-05T05:29:13.883Z,20.07
2019-04-05T05:31:45.126Z,20.60
2019-04-05T05:34:16.588Z,18.47
2019-04-05T05:36:48.137Z,17.10
2019-04-05T05:39:19.856Z,18.53
2019-04-05T05:41:53.976Z,20.57
2019-04-05T05:44:25.412Z,17.43
2019-04-05T05:46:56.686Z,17.03
2019-04-05T05:49:27.970Z,17.53
2019-04-05T05:51:59.507Z,19.73
2019-04-05T05:54:30.769Z,18.77
2019-04-05T05:57:01.995Z,17.27
2019-04-05T05:59:33.295Z,20.80
2019-04-05T06:02:07.155Z,17.40
2019-04-05T06:04:37.488Z,17.77
2019-04-05T06:07:09.386Z,20.00
2019-04-05T06:09:40.629Z,18.63
2019-04-05T06:12:11.877Z,19.60
2019-04-05T06:14:43.167Z,18.83
2019-04-05T06:17:14.350Z,18.00
2019-04-05T06:19:45.517Z,17.40
2019-04-05T06:22:16.695Z,17.40
2019-04-05T06:24:47.883Z,18.20
2019-04-05T06:27:22.185Z,18.37
2019-04-05T06:29:53.378Z,18.73
2019-04-05T06:32:24.647Z,20.30
2019-04-05T06:34:55.944Z,18.43
2019-04-05T06:39:56.795Z,17.27
2019-04-05T06:42:27.955Z,18.27
2019-04-05T06:44:59.202Z,17.57
2019-04-05T06:47:30.462Z,23.67
2019-04-05T06:50:01.727Z,18.97
2019-04-05T06:52:32.972Z,19.10
2019-04-05T06:55:04.349Z,19.00
2019-04-05T06:57:35.600Z,17.73
2019-04-05T07:00:07.486Z,18.40
2019-04-05T07:02:38.721Z,19.30
2019-04-05T07:05:10.104Z,18.80
2019-04-05T07:07:41.408Z,18.73
2019-04-05T07:10:12.890Z,25.40
2019-04-05T07:12:44.184Z,20.60
2019-04-05T07:15:15.656Z,18.80
2019-04-05T07:17:46.868Z,19.97
2019-04-05T07:20:18.189Z,21.53
2019-04-05T07:22:49.442Z,19.87
2019-04-05T07:25:20.659Z,21.40
2019-04-05T07:27:51.893Z,19.30
2019-04-05T07:30:23.376Z,21.53
2019-04-05T07:32:54.669Z,20.60
2019-04-05T07:35:33.512Z,19.20
2019-04-05T07:38:01.424Z,19.73
2019-04-05T07:40:32.754Z,22.93
2019-04-05T07:43:04.020Z,24.67
2019-04-05T07:45:35.183Z,21.57
2019-04-05T07:48:06.541Z,24.13
2019-04-05T07:50:37.828Z,19.90
2019-04-05T07:53:23.390Z,18.77
2019-04-05T07:55:55.218Z,18.27
2019-04-05T07:58:26.648Z,19.57
2019-04-05T08:00:58.775Z,18.60
2019-04-05T08:03:30.065Z,18.80
2019-04-05T08:06:01.300Z,24.57
2019-04-05T08:08:50.199Z,19.37
2019-04-05T08:17:06.125Z,16.60
2019-04-05T08:19:37.397Z,17.07
2019-04-05T08:22:08.642Z,16.03
2019-04-05T08:24:39.870Z,17.87
2019-04-05T08:27:11.154Z,14.80
2019-04-05T08:29:42.391Z,13.13
2019-04-05T08:32:15.001Z,14.20
2019-04-05T08:34:46.406Z,14.53
2019-04-05T08:37:17.585Z,12.53
2019-04-05T08:39:48.838Z,12.23
2019-04-05T08:42:20.045Z,12.77
2019-04-05T08:44:51.192Z,12.90
2019-04-05T08:47:22.796Z,12.20
2019-04-05T08:49:54.276Z,11.97
2019-04-05T08:52:27.040Z,13.33
2019-04-05T08:54:58.471Z,12.13
2019-04-05T08:57:29.914Z,10.93
2019-04-05T09:00:01.112Z,10.97
2019-04-05T09:02:32.487Z,11.37
2019-04-05T09:05:03.857Z,11.37
2019-04-05T09:07:35.218Z,11.10
2019-04-05T09:10:07.247Z,11.07
2019-04-05T09:12:38.525Z,11.20
2019-04-05T09:15:10.277Z,12.03
2019-04-05T09:17:41.532Z,11.00
2019-04-05T09:20:13.065Z,10.23
2019-04-05T09:22:44.344Z,12.17
2019-04-05T09:25:15.584Z,20.37
2019-04-05T09:27:46.781Z,22.23
2019-04-05T09:30:19.050Z,10.67
2019-04-05T09:32:50.261Z,11.00
2019-04-05T09:35:21.631Z,8.80
2019-04-05T09:37:52.873Z,8.27
2019-04-05T09:40:24.249Z,7.40
2019-04-05T09:42:55.473Z,7.50
2019-04-05T09:45:26.807Z,8.37
2019-04-05T09:48:01.170Z,8.33
2019-04-05T09:50:32.488Z,7.57
2019-04-05T09:53:03.827Z,7.77
2019-04-05T09:55:37.672Z,7.70
2019-04-05T09:58:10.181Z,8.87
2019-04-05T10:00:41.709Z,7.37
2019-04-05T10:03:12.952Z,7.03
2019-04-05T10:05:44.374Z,6.10
2019-04-05T10:08:15.730Z,7.80
2019-04-05T10:10:47.057Z,8.40
2019-04-05T10:13:18.292Z,7.50
2019-04-05T10:15:49.568Z,9.50
2019-04-05T10:18:20.884Z,7.90
2019-04-05T10:20:52.118Z,8.60
2019-04-05T10:23:23.414Z,7.57
2019-04-05T10:25:54.708Z,7.17
2019-04-05T10:28:25.962Z,8.53
2019-04-05T10:30:57.172Z,7.10
2019-04-05T10:33:28.491Z,8.40
2019-04-05T10:35:59.832Z,7.70
2019-04-05T10:38:31.070Z,13.50
2019-04-05T10:41:02.327Z,10.00
2019-04-05T10:43:33.605Z,9.70
2019-04-05T10:46:05.819Z,11.20
2019-04-05T10:48:37.224Z,8.40
2019-04-05T10:51:08.532Z,8.70
2019-04-05T10:53:39.872Z,9.83
2019-04-05T10:56:11.136Z,8.20
2019-04-05T10:58:42.505Z,8.20
2019-04-05T11:01:14.791Z,7.57
2019-04-05T11:03:46.043Z,9.73
2019-04-05T11:06:17.355Z,10.45
2019-04-05T11:08:48.677Z,8.77
2019-04-05T11:16:57.512Z,11.20
2019-04-05T11:19:18.163Z,11.17
2019-04-05T11:21:52.179Z,10.00
2019-04-05T11:24:22.646Z,9.30
2019-04-05T11:26:53.893Z,9.10
2019-04-05T11:29:25.158Z,10.00
2019-04-05T11:31:57.691Z,10.07
2019-04-05T11:34:29.129Z,9.60
2019-04-05T11:37:02.819Z,9.57
2019-04-05T11:39:35.165Z,9.93
2019-04-05T11:42:06.768Z,9.40
2019-04-05T11:44:41.436Z,9.50
2019-04-05T11:47:12.958Z,10.63
2019-04-05T11:49:47.969Z,10.57
2019-04-05T11:52:19.380Z,10.20
2019-04-05T11:54:50.998Z,10.83
2019-04-05T11:57:22.343Z,9.63
2019-04-05T11:59:53.736Z,10.23
2019-04-05T12:02:32.823Z,11.80
2019-04-05T12:05:12.690Z,10.43
2019-04-05T12:08:05.180Z,11.40
2019-04-05T12:10:46.001Z,11.83
2019-04-05T12:13:38.915Z,11.30
2019-04-05T12:16:27.555Z,10.40
2019-04-05T12:18:59.558Z,10.23
2019-04-05T12:21:34.804Z,11.10
2019-04-05T12:24:11.347Z,12.10
2019-04-05T12:26:46.181Z,10.10
2019-04-05T12:29:28.800Z,11.50
2019-04-05T12:32:08.494Z,10.93
2019-04-05T12:34:52.719Z,11.77
2019-04-05T12:37:27.210Z,10.73
2019-04-05T12:40:14.871Z,9.90
2019-04-05T12:43:00.338Z,11.10
2019-04-05T12:45:44.309Z,10.13
2019-04-05T12:48:16.000Z,8.83
2019-04-05T12:51:01.688Z,9.00
2019-04-05T12:53:38.177Z,10.17
2019-04-05T12:56:10.906Z,10.13
2019-04-05T12:58:43.607Z,9.73
2019-04-05T13:01:24.006Z,11.60
2019-04-05T13:03:58.390Z,10.10
2019-04-05T13:06:28.259Z,11.20
2019-04-05T13:08:59.488Z,10.50
2019-04-05T13:11:30.759Z,10.63
2019-04-05T13:14:02.063Z,10.10
2019-04-05T13:16:33.321Z,10.07
2019-04-05T13:19:04.579Z,10.53
2019-04-05T13:21:36.227Z,11.23
2019-04-05T13:24:10.002Z,11.20
2019-04-05T13:26:42.045Z,10.27
2019-04-05T13:29:13.391Z,10.73
2019-04-05T13:31:51.635Z,10.57
2019-04-05T13:34:25.642Z,10.47
2019-04-05T13:36:55.890Z,10.00
2019-04-05T13:39:27.540Z,12.20
2019-04-05T13:42:01.800Z,11.70
2019-04-05T13:44:33.052Z,10.03
2019-04-05T13:47:10.864Z,12.10
2019-04-05T13:49:42.238Z,12.20
2019-04-05T13:52:13.502Z,13.77
2019-04-05T13:54:44.847Z,11.07
2019-04-05T13:57:16.170Z,15.50
2019-04-05T13:59:47.559Z,13.77
2019-04-05T14:02:21.142Z,12.10
2019-04-05T14:04:53.877Z,13.00
2019-04-05T14:07:25.342Z,15.23
2019-04-05T14:12:40.193Z,12.33
2019-04-05T14:15:12.317Z,11.57
2019-04-05T14:17:44.746Z,15.57
2019-04-05T14:20:19.573Z,10.90
2019-04-05T14:22:52.333Z,12.63
2019-04-05T14:25:26.040Z,14.40
2019-04-05T14:27:56.695Z,12.13
2019-04-05T14:30:27.974Z,15.53
2019-04-05T14:32:59.274Z,12.43
2019-04-05T14:35:30.570Z,10.53
2019-04-05T14:38:01.708Z,9.57
2019-04-05T14:40:33.227Z,11.73
2019-04-05T14:43:04.544Z,11.17
2019-04-05T14:45:35.941Z,13.53
2019-04-05T14:48:07.328Z,13.97
2019-04-05T14:50:38.701Z,12.83
2019-04-05T14:53:09.866Z,12.03
2019-04-05T14:55:41.182Z,13.70
2019-04-05T14:58:12.385Z,16.47
2019-04-05T15:00:44.403Z,17.37
2019-04-05T15:03:16.630Z,15.43
2019-04-05T15:05:48.026Z,18.27
2019-04-05T15:08:20.716Z,12.50
2019-04-05T15:10:56.472Z,11.97
2019-04-05T15:13:25.278Z,13.53
2019-04-05T15:15:56.889Z,14.03
2019-04-05T15:18:28.384Z,13.53
2019-04-05T15:20:59.615Z,15.63
2019-04-05T15:23:30.794Z,14.13
2019-04-05T15:26:02.035Z,13.27
2019-04-05T15:28:33.386Z,13.33
2019-04-05T15:31:04.769Z,13.70
2019-04-05T15:33:36.086Z,15.03
2019-04-05T15:36:07.407Z,14.77
2019-04-05T15:38:38.654Z,13.70
2019-04-05T15:44:01.517Z,12.17
2019-04-05T15:46:32.785Z,13.20
2019-04-05T15:49:03.999Z,12.67
2019-04-05T15:51:35.273Z,12.73
2019-04-05T15:54:06.571Z,13.17
2019-04-05T15:56:37.796Z,10.33
2019-04-05T15:59:09.130Z,13.40
2019-04-05T16:01:41.180Z,13.00
2019-04-05T16:04:12.543Z,12.20
2019-04-05T16:06:43.770Z,13.23
2019-04-05T16:09:17.419Z,12.97
2019-04-05T16:11:49.748Z,13.47
2019-04-05T16:14:21.111Z,12.50
2019-04-05T16:16:53.724Z,12.10
2019-04-05T16:19:25.135Z,11.87
2019-04-05T16:21:56.384Z,12.30
2019-04-05T16:24:27.679Z,11.50
2019-04-05T16:26:58.983Z,11.33
2019-04-05T16:29:30.323Z,10.90
2019-04-05T16:32:01.627Z,11.87
2019-04-05T16:34:32.951Z,12.23
2019-04-05T16:37:04.518Z,13.20
2019-04-05T16:39:35.713Z,11.77
2019-04-05T16:42:09.988Z,12.60
2019-04-05T16:44:39.983Z,11.83
2019-04-05T16:47:11.149Z,11.83
2019-04-05T16:49:42.345Z,12.43
2019-04-05T16:52:13.590Z,12.60
2019-04-05T16:54:44.896Z,11.53
2019-04-05T16:57:16.128Z,13.90
2019-04-05T16:59:47.386Z,11.73
2019-04-05T17:02:18.627Z,13.60
2019-04-05T17:04:49.914Z,12.50
2019-04-05T17:07:21.147Z,13.13
2019-04-05T17:09:52.428Z,12.90
2019-04-05T17:12:23.633Z,13.17
2019-04-05T17:14:54.801Z,13.20
2019-04-05T17:17:26.034Z,12.97
2019-04-05T17:19:57.898Z,12.40
2019-04-05T17:22:33.508Z,14.90
2019-04-05T17:25:05.279Z,12.27
2019-04-05T17:27:36.502Z,13.37
2019-04-05T17:30:08.415Z,14.83
2019-04-05T17:32:39.578Z,14.60
2019-04-05T17:35:11.485Z,14.20
2019-04-05T17:37:42.733Z,13.83
2019-04-05T17:40:14.508Z,16.03
2019-04-05T17:42:45.757Z,14.90
2019-04-05T17:45:17.263Z,17.00
2019-04-05T17:47:48.477Z,16.17
2019-04-05T17:50:34.113Z,14.23
2019-04-05T17:53:12.583Z,14.07
2019-04-05T17:55:47.450Z,16.70
2019-04-05T17:58:19.883Z,15.60
2019-04-05T18:00:51.145Z,17.80
2019-04-05T18:03:22.413Z,21.10
2019-04-05T18:05:53.756Z,17.57
2019-04-05T18:08:24.943Z,18.63
2019-04-05T18:10:56.503Z,21.07
2019-04-05T18:13:27.795Z,19.63
2019-04-05T18:15:59.058Z,20.40
2019-04-05T18:18:30.359Z,20.27
2019-04-05T18:21:01.651Z,19.40
2019-04-05T18:23:32.948Z,25.63
2019-04-05T18:26:04.194Z,17.63
2019-04-05T18:28:35.565Z,20.47
2019-04-05T18:31:06.847Z,20.50
2019-04-05T18:33:38.081Z,21.40
2019-04-05T18:36:09.554Z,19.47
2019-04-05T18:38:40.783Z,15.00
2019-04-05T18:49:18.229Z,19.80
2019-04-05T18:51:49.490Z,18.80
2019-04-05T18:54:20.708Z,20.03
2019-04-05T18:56:51.960Z,21.23
2019-04-05T18:59:23.205Z,17.80
2019-04-05T19:01:54.489Z,21.67
2019-04-05T19:04:25.726Z,20.87
2019-04-05T19:06:56.976Z,21.77
2019-04-05T19:09:28.219Z,18.70
2019-04-05T19:11:59.429Z,20.97
2019-04-05T19:14:30.699Z,19.67
2019-04-05T19:17:03.167Z,20.23
2019-04-05T19:19:34.441Z,23.60
2019-04-05T19:22:05.798Z,19.93
2019-04-05T19:24:37.173Z,19.27
2019-04-05T19:27:08.502Z,21.33
2019-04-05T19:29:39.770Z,22.03
2019-04-05T19:50:04.333Z,21.30
2019-04-05T19:52:35.669Z,22.70
2019-04-05T19:55:08.045Z,24.83
2019-04-05T19:57:39.167Z,21.70
2019-04-05T20:00:11.206Z,22.53
2019-04-05T20:02:50.140Z,20.97
2019-04-05T20:05:21.659Z,22.50
2019-04-05T20:07:53.093Z,24.63
2019-04-05T20:13:06.401Z,20.20
2019-04-05T20:15:37.653Z,23.50
2019-04-05T20:18:09.009Z,24.90
2019-04-05T20:20:40.262Z,23.30
2019-04-05T20:23:11.660Z,20.17
2019-04-05T20:25:42.964Z,24.17
2019-04-05T20:28:14.201Z,24.70
2019-04-05T20:30:45.520Z,25.00
2019-04-05T20:33:16.813Z,25.07
2019-04-05T20:35:48.164Z,24.77
2019-04-05T20:38:19.401Z,24.90
2019-04-05T20:40:50.730Z,24.10
2019-04-05T20:43:25.131Z,26.23
2019-04-05T20:45:59.308Z,23.60
2019-04-05T20:48:30.498Z,23.30
2019-04-05T20:51:05.112Z,24.00
2019-04-05T20:53:36.429Z,24.37
2019-04-05T20:56:07.760Z,25.47
2019-04-05T20:58:39.130Z,23.00
2019-04-05T21:01:10.440Z,25.10
2019-04-05T21:03:41.805Z,24.10
2019-04-05T21:06:13.298Z,26.50
2019-04-05T21:08:44.617Z,24.90
2019-04-05T21:11:15.867Z,24.33
2019-04-05T21:13:47.315Z,25.53
2019-04-05T21:16:18.671Z,25.93
2019-04-05T21:18:50.022Z,25.73
2019-04-05T21:21:21.481Z,27.03
2019-04-05T21:23:52.922Z,27.30
2019-04-05T21:26:24.384Z,27.70
2019-04-05T21:28:56.847Z,26.20
2019-04-05T21:31:28.227Z,28.07
2019-04-05T21:34:02.149Z,26.43
2019-04-05T21:36:57.166Z,24.40
2019-04-05T21:39:47.426Z,25.57
2019-04-05T21:42:18.765Z,27.40
2019-04-05T21:44:54.060Z,25.67
2019-04-05T21:47:25.417Z,28.17
2019-04-05T21:50:20.349Z,29.23
2019-04-05T21:52:51.615Z,27.30
2019-04-05T21:55:22.928Z,28.00
2019-04-05T21:57:54.253Z,29.47
2019-04-05T22:00:34.111Z,30.13
2019-04-05T22:03:05.600Z,30.67
2019-04-05T22:05:36.883Z,27.80
2019-04-05T22:08:11.016Z,28.10
2019-04-05T22:10:42.342Z,29.73
2019-04-05T22:13:25.533Z,30.87
2019-04-05T22:15:56.809Z,29.03
2019-04-05T22:18:28.236Z,29.37
2019-04-05T22:21:00.003Z,32.70
2019-04-05T22:23:31.302Z,28.13
2019-04-05T22:26:03.125Z,28.40
2019-04-05T22:28:34.403Z,30.07
2019-04-05T22:31:05.782Z,31.97
2019-04-05T22:33:37.472Z,30.17
2019-04-05T22:36:11.725Z,31.90
2019-04-05T22:38:42.944Z,27.43
2019-04-05T22:41:14.156Z,28.40
2019-04-05T22:43:45.489Z,29.57
2019-04-05T22:46:16.705Z,30.57
2019-04-05T22:48:47.990Z,29.80
2019-04-05T22:51:19.249Z,28.17
2019-04-05T22:53:50.538Z,27.77
2019-04-05T22:56:21.810Z,30.20
2019-04-05T22:58:53.144Z,28.67
2019-04-05T23:01:24.350Z,27.13
2019-04-05T23:03:55.582Z,30.17
2019-04-05T23:06:26.837Z,28.37
2019-04-05T23:08:58.199Z,29.70
2019-04-05T23:11:29.514Z,29.63
2019-04-05T23:14:00.860Z,31.30
2019-04-05T23:16:32.216Z,34.37
2019-04-05T23:19:03.504Z,29.40
2019-04-05T23:21:34.883Z,32.53
2019-04-05T23:24:06.221Z,31.87
2019-04-05T23:26:37.429Z,29.23
2019-04-05T23:29:08.686Z,28.57
2019-04-05T23:31:39.950Z,30.77
2019-04-05T23:34:11.165Z,30.97
2019-04-05T23:36:42.369Z,28.83
2019-04-05T23:39:13.662Z,31.60
2019-04-05T23:41:44.865Z,29.50
2019-04-05T23:44:16.094Z,31.33
2019-04-05T23:46:47.384Z,31.20
2019-04-05T23:49:18.687Z,29.90
2019-04-05T23:51:51.170Z,30.90
2019-04-05T23:54:22.499Z,30.60
2019-04-05T23:56:53.689Z,29.50
2019-04-05T23:59:24.993Z,31.27
